Time;durP1;ratioP1;P1;durP2;ratioP2;P2;SDS_P1;SDS_P2;PMS_P1;PMS_P2;Temp;Humidity;BMP_temperature;BMP_pressure;BME280_temperature;BME280_humidity;BME280_pressure;Samples;Min_cycle;Max_cycle;Signal;HPM_P1;HPM_P2
2022/04/26 03:37:45;;;;;;;15.70;12.35;;;;;;;5.89;100.00;67429.53;5047760;28;20056;-87
2022/04/26 03:40:10;;;;;;;18.15;12.18;;;;;;;5.88;100.00;67428.97;5031105;28;20126;-87
2022/04/26 03:42:36;;;;;;;19.10;12.20;;;;;;;5.90;100.00;67433.31;5047392;28;20052;-88
2022/04/26 03:45:01;;;;;;;16.90;11.57;;;;;;;5.89;100.00;67434.81;5046332;28;20049;-87
2022/04/26 03:47:27;;;;;;;19.63;12.40;;;;;;;5.94;100.00;67440.50;5041494;22;20049;-79
2022/04/26 03:49:52;;;;;;;17.13;12.30;;;;;;;5.94;100.00;67437.84;5019849;28;20038;-80
2022/04/26 03:52:20;;;;;;;17.15;12.02;;;;;;;5.95;100.00;67438.97;5011721;28;20046;-80
2022/04/26 03:54:45;;;;;;;18.77;13.00;;;;;;;5.96;100.00;67440.13;5013964;28;20057;-80
2022/04/26 03:57:10;;;;;;;22.77;14.80;;;;;;;5.92;100.00;67435.56;5036113;28;20071;-80
2022/04/26 03:59:36;;;;;;;19.80;13.82;;;;;;;5.94;100.00;67437.84;5068670;28;20045;-78
2022/04/26 04:02:01;;;;;;;16.55;13.50;;;;;;;5.92;100.00;67438.22;5052168;28;20036;-78
2022/04/26 04:04:26;;;;;;;23.67;17.25;;;;;;;5.90;100.00;67430.69;5049278;28;20084;-80
2022/04/26 04:06:52;;;;;;;19.10;13.70;;;;;;;5.92;100.00;67438.22;5047625;28;20124;-78
2022/04/26 04:09:17;;;;;;;19.40;14.52;;;;;;;5.91;100.00;67431.25;5039705;28;20048;-78
2022/04/26 04:11:43;;;;;;;19.30;12.98;;;;;;;5.91;100.00;67431.81;5046774;28;20037;-80
2022/04/26 04:14:08;;;;;;;19.13;13.13;;;;;;;5.90;100.00;67435.97;5049733;28;20513;-78
2022/04/26 04:16:33;;;;;;;22.15;14.10;;;;;;;5.91;100.00;67431.81;5050995;28;20120;-80
2022/04/26 04:21:45;;;;;;;17.75;14.05;;;;;;;5.88;100.00;67434.25;5056443;28;20051;-80
2022/04/26 04:24:11;;;;;;;18.10;12.70;;;;;;;5.96;100.00;67440.13;5052561;28;20579;-79
2022/04/26 04:26:36;;;;;;;22.00;14.32;;;;;;;5.92;100.00;67432.91;5045847;28;20040;-80
2022/04/26 04:29:02;;;;;;;20.60;13.10;;;;;;;;;;5058364;28;20131;-79
2022/04/26 04:31:27;;;;;;;22.33;13.80;;;;;;;5.97;100.00;67443.31;5048936;28;20045;-80
2022/04/26 04:33:53;;;;;;;21.33;14.30;;;;;;;5.96;100.00;67442.75;5048915;28;20049;-78
2022/04/26 04:36:18;;;;;;;20.00;13.57;;;;;;;6.03;100.00;67447.47;5047852;28;20109;-79
2022/04/26 04:38:43;;;;;;;20.85;13.32;;;;;;;6.01;100.00;67447.84;5057205;28;20105;-79
2022/04/26 04:41:09;;;;;;;22.73;14.05;;;;;;;6.03;100.00;67448.03;5057107;28;20100;-79
2022/04/26 04:43:35;;;;;;;20.02;13.15;;;;;;;6.03;100.00;67444.81;5073130;28;20112;-79
2022/04/26 04:46:00;;;;;;;20.17;14.77;;;;;;;;;;5049695;28;20072;-79
2022/04/26 04:48:26;;;;;;;19.08;14.27;;;;;;;6.10;100.00;67452.75;5043078;28;20045;-79
2022/04/26 04:50:51;;;;;;;21.48;14.25;;;;;;;6.10;100.00;67453.31;5052263;28;20041;-79
2022/04/26 04:53:20;;;;;;;19.92;13.75;;;;;;;6.15;100.00;67460.47;5053859;28;20041;-79
2022/04/26 04:55:46;;;;;;;19.65;14.80;;;;;;;6.17;100.00;67462.72;5057088;28;20458;-79
2022/04/26 04:58:11;;;;;;;21.58;15.35;;;;;;;6.22;100.00;67468.38;5054558;28;20115;-79
2022/04/26 05:00:37;;;;;;;20.30;15.27;;;;;;;6.25;100.00;67472.34;5056087;28;20419;-79
2022/04/26 05:03:03;;;;;;;21.25;14.07;;;;;;;6.29;100.00;67476.28;5048775;28;20049;-78
2022/04/26 05:05:28;;;;;;;25.10;15.20;;;;;;;6.38;100.00;67489.09;5057601;28;20048;-79
2022/04/26 05:07:53;;;;;;;21.73;15.27;;;;;;;6.43;100.00;67494.75;5055308;28;20530;-79
2022/04/26 05:10:19;;;;;;;23.33;16.55;;;;;;;6.45;100.00;67491.75;5053367;28;20492;-79
2022/04/26 05:12:45;;;;;;;21.92;15.27;;;;;;;6.49;100.00;67498.34;5052277;28;20061;-79
2022/04/26 05:15:10;;;;;;;23.70;15.88;;;;;;;6.51;100.00;67497.97;5045146;28;20496;-78
2022/04/26 05:17:36;;;;;;;22.85;15.52;;;;;;;6.61;100.00;67511.91;5051784;28;20045;-78
2022/04/26 05:20:01;;;;;;;19.95;15.23;;;;;;;6.72;100.00;67524.34;5049340;28;20037;-79
2022/04/26 05:22:27;;;;;;;22.35;15.90;;;;;;;6.69;100.00;67518.31;5049763;28;20044;-78
2022/04/26 05:24:58;;;;;;;25.15;16.67;;;;;;;6.71;100.00;67525.88;5049292;28;20044;-78
2022/04/26 05:27:25;;;;;;;25.35;17.95;;;;;;;6.79;100.00;67529.06;5060763;28;20128;-76
2022/04/26 05:29:51;;;;;;;22.30;17.33;;;;;;;6.76;100.00;67531.53;5045611;28;20041;-80
2022/04/26 05:32:20;;;;;;;25.73;17.75;;;;;;;6.83;100.00;67533.59;5037998;28;20064;-79
2022/04/26 05:34:46;;;;;;;21.90;16.80;;;;;;;6.89;100.00;67543.03;5044526;28;20179;-78
2022/04/26 05:37:11;;;;;;;31.02;19.95;;;;;;;6.86;100.00;67536.44;5044429;28;20156;-80
2022/04/26 05:39:37;;;;;;;27.95;18.88;;;;;;;6.89;100.00;67545.66;5045481;28;20048;-78
2022/04/26 05:42:02;;;;;;;25.88;17.08;;;;;;;6.93;100.00;67546.97;5046246;28;20033;-78
2022/04/26 05:44:28;;;;;;;22.80;17.35;;;;;;;7.03;100.00;67557.75;5042907;28;20045;-79
2022/04/26 05:46:53;;;;;;;23.35;17.13;;;;;;;7.03;100.00;67557.75;5058852;28;20468;-76
2022/04/26 05:49:18;;;;;;;23.95;17.05;;;;;;;7.08;100.00;67561.31;5046464;28;20053;-77
2022/04/26 05:51:44;;;;;;;23.15;17.45;;;;;;;7.12;100.00;67567.91;5039669;28;20037;-77
2022/04/26 05:54:09;;;;;;;23.83;18.05;;;;;;;7.13;100.00;67569.03;5046610;28;20132;-79
2022/04/26 05:56:34;;;;;;;26.40;18.98;;;;;;;7.14;100.00;67570.19;5047850;28;21195;-78
2022/04/26 05:59:00;;;;;;;23.73;17.40;;;;;;;7.18;100.00;67574.72;5048054;28;20048;-79
2022/04/26 06:01:25;;;;;;;26.30;18.52;;;;;;;;;;5046605;28;20042;-79
2022/04/26 06:03:50;;;;;;;23.08;16.73;;;;;;;7.15;100.00;67571.88;5046990;28;20053;-80
2022/04/26 06:06:15;;;;;;;25.63;18.25;;;;;;;7.17;100.00;67571.50;5044608;28;20053;-76
2022/04/26 06:08:41;;;;;;;24.63;18.45;;;;;;;7.20;100.00;67574.34;5047878;28;20041;-79
2022/04/26 06:11:07;;;;;;;22.02;17.58;;;;;;;7.23;100.00;67583.00;5049182;28;20033;-80
2022/04/26 06:13:32;;;;;;;26.02;18.38;;;;;;;7.26;100.00;67580.56;5040979;28;20048;-77
2022/04/26 06:15:57;;;;;;;24.45;17.17;;;;;;;7.29;100.00;67584.50;5045210;28;20067;-78
2022/04/26 06:18:22;;;;;;;24.77;17.60;;;;;;;7.31;100.00;67592.06;5049633;28;20052;-78
2022/04/26 06:20:48;;;;;;;23.50;17.27;;;;;;;7.26;100.00;67586.41;5048060;28;20127;-77
2022/04/26 06:23:13;;;;;;;27.48;18.38;;;;;;;7.32;100.00;67590.00;5048701;28;20512;-78
2022/04/26 06:25:39;;;;;;;24.58;17.80;;;;;;;7.36;100.00;67595.06;5048990;28;20065;-80
2022/04/26 06:28:06;;;;;;;25.45;17.75;;;;;;;7.41;100.00;67603.38;5048914;28;20209;-79
2022/04/26 06:30:31;;;;;;;23.58;17.42;;;;;;;7.46;100.00;67606.41;5048422;28;20915;-80
2022/04/26 06:32:57;;;;;;;25.55;16.85;;;;;;;7.52;100.00;67604.13;5045317;28;20040;-78
2022/04/26 06:35:22;;;;;;;23.13;17.55;;;;;;;;;;5046206;28;20041;-80
2022/04/26 06:37:48;;;;;;;24.65;18.17;;;;;;;7.57;100.00;67615.63;5046941;28;20125;-77
2022/04/26 06:40:14;;;;;;;22.67;16.85;;;;;;;7.55;100.00;67618.09;5051787;28;20041;-79
2022/04/26 06:42:39;;;;;;;26.30;16.95;;;;;;;7.60;100.00;67623.78;5048110;28;20044;-79
2022/04/26 06:45:05;;;;;;;27.23;18.80;;;;;;;7.54;100.00;67611.66;5045322;28;20072;-80
2022/04/26 06:47:30;;;;;;;25.50;18.33;;;;;;;7.50;100.00;67607.72;5049605;28;20145;-79
2022/04/26 06:49:55;;;;;;;22.35;16.65;;;;;;;7.53;100.00;67613.19;5048061;28;20045;-76
2022/04/26 06:52:21;;;;;;;28.75;18.00;;;;;;;7.51;100.00;67608.28;5051326;28;20132;-80
2022/04/26 06:54:46;;;;;;;25.20;17.92;;;;;;;7.55;100.00;67618.66;5046641;28;20114;-79
2022/04/26 06:57:11;;;;;;;24.33;17.05;;;;;;;7.58;100.00;67618.84;5044911;28;20049;-75
2022/04/26 06:59:39;;;;;;;25.25;17.73;;;;;;;7.61;100.00;67624.91;5046504;28;20041;-76
2022/04/26 07:02:05;;;;;;;24.90;17.85;;;;;;;7.79;100.00;67645.25;5041589;28;20115;-79
2022/04/26 07:04:30;;;;;;;20.90;16.92;;;;;;;8.01;100.00;67669.06;5043044;28;20113;-79
2022/04/26 07:06:56;;;;;;;23.25;16.33;;;;;;;8.16;100.00;67682.81;5043874;28;20094;-80
2022/04/26 07:09:22;;;;;;;21.98;16.92;;;;;;;8.22;100.00;67690.19;5038396;28;20049;-80
2022/04/26 07:11:47;;;;;;;22.85;16.70;;;;;;;8.30;100.00;67696.59;5045282;28;20479;-77
2022/04/26 07:14:13;;;;;;;20.15;15.85;;;;;;;8.36;99.93;67705.47;5036243;28;20448;-77
2022/04/26 07:16:38;;;;;;;20.35;14.65;;;;;;;8.50;99.88;67718.72;5035388;28;21456;-77
2022/04/26 07:19:04;;;;;;;20.15;15.55;;;;;;;8.59;98.08;67731.56;5034807;28;20137;-77
2022/04/26 07:21:29;;;;;;;17.98;15.02;;;;;;;8.69;97.96;67739.66;5037718;28;20077;-77
2022/04/26 07:23:54;;;;;;;20.50;15.88;;;;;;;8.78;97.57;67752.53;5034164;28;20076;-78
2022/04/26 07:26:20;;;;;;;20.17;15.23;;;;;;;8.80;97.33;67752.13;5037614;28;20071;-78
2022/04/26 07:28:45;;;;;;;18.60;14.88;;;;;;;8.95;97.00;67773.88;5041952;28;20073;-78
2022/04/26 07:31:10;;;;;;;25.42;15.32;;;;;;;8.95;95.58;67768.00;5037606;28;20041;-78
2022/04/26 07:36:22;;;;;;;19.70;13.18;;;;;;;;;;5036025;28;20399;-78
2022/04/26 07:38:48;;;;;;;19.77;14.48;;;;;;;9.00;94.93;67773.66;5041496;28;20084;-79
2022/04/26 07:41:13;;;;;;;19.60;13.98;;;;;;;9.05;93.62;67781.97;5044324;28;20280;-77
2022/04/26 07:43:38;;;;;;;17.70;14.70;;;;;;;9.14;93.50;67784.22;5046587;28;20320;-77
2022/04/26 07:46:05;;;;;;;18.08;13.63;;;;;;;9.29;92.31;67808.03;5037286;28;20099;-78
2022/04/26 08:45:40;;;;;;;14.43;11.68;;;;;;;10.62;83.68;67948.13;6016196;23;20024;-85
2022/04/26 08:51:05;;;;;;;14.80;10.52;;;;;;;10.81;81.37;67969.09;6022387;23;20057;-85
2022/04/26 08:53:34;;;;;;;19.17;10.02;;;;;;;11.11;80.42;67999.38;6008596;23;20024;-85
2022/04/26 08:56:03;;;;;;;12.90;9.77;;;;;;;11.13;78.26;68004.84;6012062;23;20028;-86
2022/04/26 08:58:32;;;;;;;;;;;;;;;;;;6032710;23;20011;-87
2022/04/26 09:01:10;;;;;;;16.10;10.52;;;;;;;;;;6031258;23;19935;-85
2022/04/26 09:03:37;;;;;;;15.90;12.57;;;;;;;;;;6030184;23;20071;-86
2022/04/26 09:06:15;;;;;;;18.73;10.52;;;;;;;11.55;78.42;68056.75;6027070;23;20031;-85
2022/04/26 09:08:42;;;;;;;15.05;11.00;;;;;;;11.60;77.35;68061.88;6034226;23;20095;-85
2022/04/26 09:11:24;;;;;;;15.20;10.30;;;;;;;11.45;76.45;68037.38;6017995;23;20019;-85
2022/04/26 09:13:50;;;;;;;13.43;10.43;;;;;;;;;;6006481;23;20034;-85
2022/04/26 09:16:16;;;;;;;12.50;10.23;;;;;;;;;;6013079;23;20362;-86
2022/04/26 09:18:49;;;;;;;19.67;10.32;;;;;;;;;;6013311;23;20082;-85
2022/04/26 09:21:14;;;;;;;16.67;10.25;;;;;;;11.96;75.51;68104.88;6011798;23;20024;-87
2022/04/26 09:23:39;;;;;;;13.57;9.77;;;;;;;11.85;74.15;68090.28;6007012;23;20087;-85
2022/04/26 09:26:08;;;;;;;12.77;10.35;;;;;;;11.68;75.81;68073.59;6006988;23;20035;-85
2022/04/26 09:28:35;;;;;;;14.68;10.77;;;;;;;;;;6009712;23;20035;-86
2022/04/26 09:31:00;;;;;;;18.23;11.55;;;;;;;11.69;75.65;68072.09;6007109;23;20019;-85
2022/04/26 09:33:30;;;;;;;12.63;9.32;;;;;;;11.86;75.04;68091.41;6002759;23;20042;-85
2022/04/26 09:36:09;;;;;;;13.25;8.15;;;;;;;12.21;75.25;68129.47;6024511;23;20024;-85
2022/04/26 09:38:34;;;;;;;14.52;9.48;;;;;;;;;;6002849;23;20016;-85
2022/04/26 09:41:01;;;;;;;11.95;9.23;;;;;;;12.32;73.34;68142.56;6001200;23;20023;-86
2022/04/26 09:43:28;;;;;;;13.63;9.50;;;;;;;;;;6004015;23;20020;-85
2022/04/26 09:45:56;;;;;;;11.15;9.93;;;;;;;;;;6003306;23;20021;-85
2022/04/26 09:48:29;;;;;;;15.38;9.93;;;;;;;12.08;75.99;68115.28;6005515;23;20091;-87
2022/04/26 09:50:56;;;;;;;13.75;9.65;;;;;;;;;;6030815;23;20087;-87
2022/04/26 09:53:22;;;;;;;13.70;9.48;;;;;;;12.16;76.62;68124.38;6030601;23;20038;-85
2022/04/26 09:55:48;;;;;;;12.85;9.15;;;;;;;12.23;75.38;68126.41;6047559;23;20015;-88
2022/04/26 09:58:18;;;;;;;12.70;9.48;;;;;;;12.09;74.65;68111.66;6048914;23;20015;-87
2022/04/26 10:00:47;;;;;;;13.50;8.90;;;;;;;;;;6010328;23;20022;-85
2022/04/26 10:03:16;;;;;;;12.63;9.45;;;;;;;11.75;74.69;68074.13;6028573;23;20034;-86
2022/04/26 10:05:42;;;;;;;14.93;9.13;;;;;;;;;;6031234;23;20022;-86
2022/04/26 10:08:08;;;;;;;11.88;9.20;;;;;;;11.94;74.74;68099.94;6029797;23;20019;-86
2022/04/26 10:10:34;;;;;;;10.68;8.50;;;;;;;11.95;74.00;68096.31;6030807;23;20025;-85
2022/04/26 10:15:44;;;;;;;12.77;9.20;;;;;;;11.83;73.65;68090.66;6031665;23;20222;-85
2022/04/26 10:18:28;;;;;;;11.80;8.48;;;;;;;;;;6005835;23;20019;-87
2022/04/26 10:20:54;;;;;;;11.80;8.50;;;;;;;12.18;70.37;68121.31;6005822;23;20666;-85
2022/04/26 10:23:19;;;;;;;11.57;8.07;;;;;;;;;;6026875;23;20019;-85
2022/04/26 10:26:03;;;;;;;11.05;7.90;;;;;;;;;;6030543;23;20067;-86
2022/04/26 10:28:29;;;;;;;11.43;9.10;;;;;;;12.23;68.87;68131.75;6030884;23;20019;-85
2022/04/26 10:30:56;;;;;;;11.60;8.10;;;;;;;12.51;70.73;68163.00;6032329;23;20019;-85
2022/04/26 10:33:35;;;;;;;10.38;8.43;;;;;;;12.59;71.25;68166.75;6030026;23;20015;-85
2022/04/26 10:36:35;;;;;;;13.30;8.75;;;;;;;12.86;70.56;68202.81;6031175;23;20027;-86
2022/04/26 10:39:06;;;;;;;10.25;7.82;;;;;;;12.91;67.94;68207.34;6030155;23;20079;-88
2022/04/26 10:41:37;;;;;;;11.77;8.30;;;;;;;12.98;67.93;68209.97;6033356;23;20019;-85
2022/04/26 10:44:19;;;;;;;9.48;7.88;;;;;;;13.22;68.47;68237.25;6029183;23;20561;-85
2022/04/26 10:46:58;;;;;;;12.18;7.88;;;;;;;;;;6031653;23;20051;-85
2022/04/26 10:49:24;;;;;;;10.55;7.47;;;;;;;13.06;67.03;68219.03;6003966;23;20353;-85
2022/04/26 10:52:16;;;;;;;;;;;;;;;;;;;;;
2022/04/26 10:54:55;;;;;;;12.48;7.95;;;;;;;12.77;69.02;68192.56;6008742;23;20083;-85
2022/04/26 10:57:27;;;;;;;10.20;8.40;;;;;;;;;;6030401;23;20035;-86
2022/04/26 11:00:00;;;;;;;10.32;8.07;;;;;;;13.15;68.16;68234.63;6031192;23;20015;-85
2022/04/26 11:02:31;;;;;;;12.48;8.95;;;;;;;13.23;67.78;68238.38;6029691;23;20465;-86
2022/04/26 11:05:23;;;;;;;11.98;8.93;;;;;;;12.96;67.73;68207.69;6033499;23;20019;-85
2022/04/26 11:07:50;;;;;;;11.48;8.43;;;;;;;13.09;67.53;68228.38;6020799;23;20106;-86
2022/04/26 11:10:18;;;;;;;11.25;9.25;;;;;;;;;;6057526;23;20019;-85
2022/04/26 11:12:43;;;;;;;13.98;9.00;;;;;;;;;;6056775;23;20026;-85
2022/04/26 11:15:26;;;;;;;13.13;9.20;;;;;;;13.38;69.39;68260.25;6056892;23;20468;-86
2022/04/26 11:17:52;;;;;;;13.90;8.63;;;;;;;;;;6057793;23;20093;-88
2022/04/26 11:20:24;;;;;;;12.15;8.82;;;;;;;12.95;71.28;68212.47;6057282;23;20110;-87
2022/04/26 11:22:53;;;;;;;13.60;8.90;;;;;;;12.95;70.94;68211.91;6055236;23;20953;-85
2022/04/26 11:28:06;;;;;;;;;;;;;;;;;;;;;
2022/04/26 11:30:33;;;;;;;12.18;8.13;;;;;;;;;;6056823;23;20041;-85
2022/04/26 11:33:00;;;;;;;10.70;8.90;;;;;;;13.04;70.48;68214.13;6041307;23;20023;-85
2022/04/26 11:35:26;;;;;;;14.07;8.63;;;;;;;12.96;68.15;68213.03;6029910;23;20026;-86
2022/04/26 11:37:56;;;;;;;10.95;7.72;;;;;;;13.00;68.89;68212.22;6031799;23;20016;-87
2022/04/26 11:40:26;;;;;;;12.05;8.57;;;;;;;13.22;68.08;68242.59;6031601;23;20015;-86
2022/04/26 11:42:52;;;;;;;12.48;8.68;;;;;;;;;;6028901;23;20099;-86
2022/04/26 11:45:18;;;;;;;13.20;8.30;;;;;;;13.41;66.24;68258.31;6030180;23;20047;-86
2022/04/26 11:47:50;;;;;;;10.48;7.28;;;;;;;13.40;67.06;68257.16;6030103;23;20030;-88
2022/04/26 11:50:26;;;;;;;10.98;7.72;;;;;;;13.79;64.83;68300.41;6025047;23;20500;-88
2022/04/26 11:52:58;;;;;;;11.52;7.65;;;;;;;13.88;65.45;68310.06;6027926;23;20022;-87
2022/04/26 11:55:25;;;;;;;11.23;7.72;;;;;;;;;;6028525;23;20021;-87
2022/04/26 11:57:51;;;;;;;10.40;7.60;;;;;;;;;;6029200;23;20015;-86
2022/04/26 12:00:18;;;;;;;12.68;8.30;;;;;;;14.08;66.50;68330.16;6030918;23;20095;-87
2022/04/26 12:02:46;;;;;;;12.43;8.85;;;;;;;13.99;65.92;68322.59;6029865;23;20023;-86
2022/04/26 12:05:12;;;;;;;12.38;7.88;;;;;;;13.87;67.43;68308.94;6032512;23;20027;-86
2022/04/26 12:07:38;;;;;;;13.05;7.70;;;;;;;;;;6030621;23;20025;-86
2022/04/26 12:10:04;;;;;;;14.43;7.63;;;;;;;13.78;66.19;68299.25;6029272;23;20042;-86
2022/04/26 12:12:29;;;;;;;9.90;7.88;;;;;;;13.73;67.52;68291.47;6028235;23;20026;-86
2022/04/26 12:14:55;;;;;;;10.95;7.43;;;;;;;13.91;65.35;68313.47;6029383;23;20464;-86
2022/04/26 12:17:29;;;;;;;13.60;7.25;;;;;;;14.27;65.15;68353.88;6053920;23;20072;-86
2022/04/26 12:19:55;;;;;;;8.73;6.45;;;;;;;14.53;63.04;68387.69;6032019;23;20031;-87
2022/04/26 12:22:25;;;;;;;9.77;6.75;;;;;;;14.22;64.59;68348.75;6028426;23;20023;-86
2022/04/26 12:24:52;;;;;;;9.35;7.10;;;;;;;14.29;62.68;68360.94;6030442;23;20019;-87
2022/04/26 12:27:26;;;;;;;10.60;7.22;;;;;;;;;;6029450;23;20536;-87
2022/04/26 12:29:52;;;;;;;9.98;6.80;;;;;;;14.32;62.33;68356.31;6029935;23;20132;-87
2022/04/26 12:32:19;;;;;;;9.52;7.63;;;;;;;14.31;62.69;68363.78;6030187;23;20473;-86
2022/04/26 12:34:55;;;;;;;10.95;6.80;;;;;;;;;;6027847;23;20019;-87
2022/04/26 12:37:26;;;;;;;9.48;6.63;;;;;;;;;;6027665;23;20091;-87
2022/04/26 12:40:14;;;;;;;10.43;7.78;;;;;;;14.32;64.89;68359.00;6025291;23;20127;-87
2022/04/26 12:42:41;;;;;;;8.53;6.80;;;;;;;;;;6028273;23;20079;-86
2022/04/26 12:45:21;;;;;;;11.40;7.15;;;;;;;;;;6050659;23;20255;-86
2022/04/26 12:50:46;;;;;;;10.90;6.60;;;;;;;;;;6032234;23;20042;-87
2022/04/26 12:53:24;;;;;;;11.35;7.28;;;;;;;15.46;60.39;68491.34;6031867;23;20477;-87
2022/04/26 12:55:50;;;;;;;9.35;7.68;;;;;;;15.21;61.09;68458.06;6055101;23;20086;-87
2022/04/26 12:58:18;;;;;;;12.88;7.63;;;;;;;15.61;59.61;68507.88;6032564;23;20049;-86
2022/04/26 13:00:45;;;;;;;8.57;7.10;;;;;;;;;;6032400;23;20015;-86
2022/04/26 13:03:13;;;;;;;10.13;7.45;;;;;;;15.18;60.01;68451.97;6031035;23;20020;-87
2022/04/26 13:05:47;;;;;;;12.10;7.37;;;;;;;15.16;61.36;68452.94;6033081;23;20079;-86
2022/04/26 13:08:14;;;;;;;10.30;7.13;;;;;;;15.78;59.10;68521.91;6031132;23;20023;-87
2022/04/26 13:10:43;;;;;;;12.38;7.10;;;;;;;15.55;59.21;68496.25;6051201;23;20027;-86
2022/04/26 13:13:10;;;;;;;12.05;7.00;;;;;;;15.31;59.54;68464.13;6054197;23;20402;-86
2022/04/26 13:15:35;;;;;;;10.93;7.40;;;;;;;15.35;59.61;68474.03;6053608;23;20011;-87
2022/04/26 13:18:03;;;;;;;8.88;7.28;;;;;;;15.52;59.55;68493.38;6056841;23;20048;-86
2022/04/26 13:20:29;;;;;;;11.35;7.75;;;;;;;15.45;60.14;68484.84;6057913;23;20319;-87
2022/04/26 13:22:54;;;;;;;9.55;7.43;;;;;;;;;;6044560;23;20297;-86
2022/04/26 13:25:20;;;;;;;9.80;6.90;;;;;;;15.68;58.52;68507.81;6033854;23;20030;-86
2022/04/26 13:27:48;;;;;;;10.77;7.47;;;;;;;15.14;59.96;68455.47;6054819;23;20254;-86
2022/04/26 13:30:14;;;;;;;10.93;7.25;;;;;;;;;;6036578;23;20026;-86
2022/04/26 13:32:40;;;;;;;10.20;7.28;;;;;;;15.25;58.97;68459.97;6043176;23;20023;-87
2022/04/26 13:35:05;;;;;;;8.05;6.97;;;;;;;14.79;62.64;68417.31;6080788;23;20469;-88
2022/04/26 13:37:31;;;;;;;11.23;6.95;;;;;;;;;;6042832;23;20074;-86
2022/04/26 13:39:58;;;;;;;11.65;7.43;;;;;;;14.94;59.31;68428.47;6034059;23;20022;-87
2022/04/26 13:42:25;;;;;;;8.45;6.82;;;;;;;14.86;59.58;68419.34;6031611;23;20027;-86
2022/04/26 13:44:52;;;;;;;10.30;7.18;;;;;;;;;;6031914;23;20026;-86
2022/04/26 13:47:17;;;;;;;12.70;7.03;;;;;;;;;;6030241;23;20025;-85
2022/04/26 13:49:43;;;;;;;9.82;7.38;;;;;;;14.82;61.19;68412.13;6053700;23;20090;-87
2022/04/26 13:52:13;;;;;;;9.55;7.18;;;;;;;15.11;60.06;68447.25;6027611;23;20053;-87
2022/04/26 13:54:39;;;;;;;10.05;7.00;;;;;;;;;;6030551;23;20655;-87
2022/04/26 13:57:06;;;;;;;9.48;6.55;;;;;;;15.37;57.00;68473.63;6055446;23;20023;-88
2022/04/26 13:59:32;;;;;;;8.30;6.35;;;;;;;15.64;57.13;68506.50;6033380;23;20038;-87
2022/04/26 14:01:58;;;;;;;10.20;6.25;;;;;;;15.99;56.63;68542.56;6030812;23;20062;-87
2022/04/26 14:04:23;;;;;;;10.60;7.95;;;;;;;16.02;55.22;68549.25;6055040;23;20027;-87
2022/04/26 14:06:49;;;;;;;11.95;7.15;;;;;;;;;;6032196;23;20019;-87
2022/04/26 14:09:17;;;;;;;17.42;10.38;;;;;;;15.12;57.27;68448.41;6030340;23;20365;-87
2022/04/26 14:11:42;;;;;;;14.20;9.10;;;;;;;;;;6054913;23;20035;-87
2022/04/26 14:22:19;;;;;;;10.63;6.43;;;;;;;;;;6033590;23;20067;-87
2022/04/26 14:24:45;;;;;;;10.35;7.18;;;;;;;15.85;56.31;68529.28;6032873;23;20106;-87
2022/04/26 14:27:11;;;;;;;9.57;6.03;;;;;;;15.72;57.34;68515.06;6033882;23;20026;-87
2022/04/26 14:29:37;;;;;;;11.55;6.75;;;;;;;;;;6034100;23;20019;-87
2022/04/26 14:32:03;;;;;;;10.43;5.80;;;;;;;15.72;54.81;68515.63;6030657;23;20086;-87
2022/04/26 14:34:31;;;;;;;9.95;6.15;;;;;;;15.27;55.99;68462.22;6056715;23;20011;-87
2022/04/26 14:36:58;;;;;;;10.70;5.88;;;;;;;15.14;57.35;68455.47;6034939;23;20505;-86
2022/04/26 14:39:24;;;;;;;10.55;5.75;;;;;;;15.46;57.43;68486.56;6032077;23;20023;-86
2022/04/26 14:41:49;;;;;;;10.18;5.57;;;;;;;15.66;55.78;68508.22;6032249;23;20358;-85
2022/04/26 14:44:15;;;;;;;11.63;6.03;;;;;;;15.73;57.20;68521.56;6055022;23;20029;-86
2022/04/26 14:46:40;;;;;;;11.45;6.55;;;;;;;15.66;56.50;68513.56;6032972;23;20020;-86
2022/04/26 14:49:06;;;;;;;6.65;5.63;;;;;;;;;;6033664;23;20067;-86
2022/04/26 14:52:21;;;;;;;8.20;5.88;;;;;;;15.35;56.56;68471.91;6024403;23;20340;-86
2022/04/26 14:54:47;;;;;;;8.63;5.90;;;;;;;15.05;58.26;68440.44;6027878;23;20046;-85
2022/04/26 14:57:17;;;;;;;7.80;5.57;;;;;;;15.01;57.78;68436.44;6033996;23;20047;-86
2022/04/26 14:59:46;;;;;;;8.85;5.57;;;;;;;15.47;57.68;68487.69;6032780;23;20019;-86
2022/04/26 15:02:12;;;;;;;7.15;5.70;;;;;;;15.69;55.36;68511.66;6030672;23;20015;-86
2022/04/26 15:04:38;;;;;;;7.93;4.95;;;;;;;;;;6056372;23;20074;-86
2022/04/26 15:07:04;;;;;;;9.45;5.93;;;;;;;15.68;54.56;68508.41;6032204;23;20481;-86
2022/04/26 15:09:47;;;;;;;9.13;6.10;;;;;;;15.48;55.07;68488.84;6031453;23;20015;-86
2022/04/26 15:17:44;;;;;;;7.95;4.50;;;;;;;;;;6032910;23;20046;-86
2022/04/26 15:20:12;;;;;;;7.65;5.35;;;;;;;16.14;55.53;68559.69;6033156;23;20019;-87
2022/04/26 15:22:38;;;;;;;10.13;5.50;;;;;;;15.99;55.34;68545.81;6031274;23;20346;-86
2022/04/26 15:25:06;;;;;;;9.63;4.53;;;;;;;16.52;51.62;68599.16;6033075;23;20022;-86
2022/04/26 15:27:32;;;;;;;8.68;5.28;;;;;;;16.56;54.27;68608.53;6032220;23;20454;-86
2022/04/26 15:29:57;;;;;;;10.00;5.85;;;;;;;16.39;52.39;68595.66;6029295;23;20033;-86
2022/04/26 15:32:25;;;;;;;9.75;5.47;;;;;;;16.24;52.66;68570.50;6032174;23;20414;-86
2022/04/26 15:34:51;;;;;;;8.18;5.15;;;;;;;16.18;53.47;68572.28;6031901;23;20043;-85
2022/04/26 15:37:16;;;;;;;7.13;5.05;;;;;;;16.61;52.39;68611.53;6032045;23;20026;-86
2022/04/26 15:39:42;;;;;;;8.52;4.95;;;;;;;16.47;53.50;68598.84;6031396;23;20024;-85
2022/04/26 15:42:07;;;;;;;8.95;4.78;;;;;;;;;;6031667;23;20015;-86
2022/04/26 15:44:33;;;;;;;7.25;4.60;;;;;;;16.67;52.33;68621.06;6033215;23;20130;-86
2022/04/26 15:46:58;;;;;;;8.05;4.85;;;;;;;16.93;52.12;68650.16;6055095;23;20019;-86
2022/04/26 15:49:25;;;;;;;9.00;4.90;;;;;;;16.68;51.89;68622.19;6033648;23;20019;-86
2022/04/26 15:51:51;;;;;;;6.97;5.03;;;;;;;;;;6031362;23;20064;-85
2022/04/26 15:54:16;;;;;;;7.93;3.95;;;;;;;16.36;52.84;68586.84;6027622;23;20023;-86
2022/04/26 15:56:43;;;;;;;7.18;5.00;;;;;;;16.57;50.42;68610.25;6028300;23;20508;-86
2022/04/26 15:59:09;;;;;;;8.52;4.72;;;;;;;16.55;49.84;68604.69;6024773;23;20023;-86
2022/04/26 16:01:36;;;;;;;5.90;4.55;;;;;;;16.42;50.29;68590.44;6025862;23;20026;-86
2022/04/26 16:04:01;;;;;;;5.68;4.60;;;;;;;16.70;49.82;68621.78;6025277;23;20102;-86
2022/04/26 16:06:27;;;;;;;6.85;4.75;;;;;;;;;;6060989;23;20019;-86
2022/04/26 16:20:28;;;;;;;10.20;4.82;;;;;;;16.65;51.28;68616.09;6054043;23;20493;-86
2022/04/26 16:22:34;;;;;;;8.63;4.35;;;;;;;16.12;50.87;68559.50;6031097;23;20026;-85
2022/04/26 16:24:59;;;;;;;6.03;3.85;;;;;;;16.15;53.54;68563.50;6035103;23;20074;-84
2022/04/26 16:27:26;;;;;;;8.75;4.40;;;;;;;15.94;51.54;68545.50;6033515;23;20090;-84
2022/04/26 16:29:51;;;;;;;7.38;3.85;;;;;;;16.02;52.06;68546.56;6033071;23;20019;-84
2022/04/26 16:32:17;;;;;;;9.40;3.63;;;;;;;16.18;51.66;68561.53;6032721;23;20026;-85
2022/04/26 16:34:42;;;;;;;6.63;3.75;;;;;;;;;;6037672;23;20023;-84
2022/04/26 16:37:07;;;;;;;7.68;4.03;;;;;;;15.94;52.18;68539.53;6048564;23;20043;-84
2022/04/26 16:39:33;;;;;;;6.88;4.00;;;;;;;16.24;50.04;68573.75;6031600;23;20016;-84
2022/04/26 16:41:59;;;;;;;7.75;4.18;;;;;;;15.93;49.54;68538.97;6035854;23;20019;-84
2022/04/26 16:44:24;;;;;;;6.60;3.70;;;;;;;;;;6066382;23;20063;-84
2022/04/26 16:46:50;;;;;;;6.25;3.90;;;;;;;16.16;49.18;68569.44;6031589;23;20406;-84
2022/04/26 16:49:15;;;;;;;7.22;4.07;;;;;;;;;;6033285;23;20023;-84
2022/04/26 16:51:40;;;;;;;8.23;4.13;;;;;;;16.35;50.10;68585.72;6033024;23;20019;-84
2022/04/26 16:54:06;;;;;;;8.05;3.63;;;;;;;16.45;49.08;68593.84;6032030;23;20243;-84
2022/04/26 16:56:32;;;;;;;5.75;4.00;;;;;;;16.15;50.00;68562.94;6033937;23;20030;-84
2022/04/26 16:58:58;;;;;;;6.55;3.58;;;;;;;15.97;49.98;68543.56;6033009;23;20560;-84
2022/04/26 17:01:23;;;;;;;9.23;3.90;;;;;;;16.15;49.79;68562.94;6030331;23;20034;-84
2022/04/26 17:03:49;;;;;;;5.13;3.55;;;;;;;15.78;50.41;68519.78;6034790;23;20015;-84
2022/04/26 17:06:14;;;;;;;6.85;3.80;;;;;;;15.60;51.11;68501.94;6035171;23;20015;-84
2022/04/26 17:08:40;;;;;;;8.07;4.53;;;;;;;15.38;51.30;68476.88;6041796;23;20019;-84
2022/04/26 17:13:50;;;;;;;6.88;3.38;;;;;;;15.42;51.89;68481.41;6029558;23;20030;-84
2022/04/26 17:16:15;;;;;;;8.10;3.85;;;;;;;;;;6028219;23;20019;-85